createdAt,value
2022-12-11T00:00:31.265Z,59.30
2022-12-11T00:05:33.713Z,59.71
2022-12-11T00:10:37.999Z,59.50
2022-12-11T00:15:40.302Z,60.27
2022-12-11T00:20:42.853Z,60.13
2022-12-11T00:25:46.546Z,60.03
2022-12-11T00:30:48.865Z,60.43
2022-12-11T00:35:51.000Z,60.72
2022-12-11T00:40:53.314Z,60.95
2022-12-11T00:45:55.492Z,60.58
2022-12-11T00:50:57.976Z,60.58
2022-12-11T00:55:59.986Z,60.67
2022-12-11T01:01:14.882Z,60.72
2022-12-11T01:06:19.651Z,60.85
2022-12-11T01:11:21.859Z,60.95
2022-12-11T01:16:23.923Z,60.65
2022-12-11T01:21:26.077Z,61.26
2022-12-11T01:26:28.169Z,61.21
2022-12-11T01:31:30.360Z,61.31
2022-12-11T01:36:32.477Z,61.60
2022-12-11T01:41:34.659Z,61.81
2022-12-11T01:46:37.176Z,62.12
2022-12-11T01:51:53.801Z,62.24
2022-12-11T01:57:01.608Z,62.25
2022-12-11T02:07:55.915Z,62.32
2022-12-11T02:13:05.290Z,62.44
2022-12-11T02:18:18.500Z,61.98
2022-12-11T02:23:29.205Z,62.61
2022-12-11T02:28:42.597Z,62.40
2022-12-11T02:33:51.405Z,62.38
2022-12-11T02:38:55.070Z,62.48
2022-12-11T02:43:58.928Z,62.73
2022-12-11T02:49:03.154Z,62.20
2022-12-11T02:54:10.592Z,63.08
2022-12-11T02:59:26.207Z,62.64
2022-12-11T03:04:29.434Z,63.11
2022-12-11T03:09:32.413Z,63.44
2022-12-11T03:14:34.621Z,62.74
2022-12-11T03:19:47.900Z,63.47
2022-12-11T03:25:04.554Z,63.05
2022-12-11T03:30:14.176Z,63.80
2022-12-11T03:35:36.219Z,63.53
2022-12-11T03:40:42.744Z,62.83
2022-12-11T03:45:47.348Z,63.37
2022-12-11T03:50:50.658Z,63.87
2022-12-11T03:55:53.210Z,64.23
2022-12-11T04:00:55.181Z,63.60
2022-12-11T04:05:57.249Z,63.50
2022-12-11T04:11:17.545Z,62.98
2022-12-11T04:16:19.550Z,64.02
2022-12-11T04:21:40.124Z,62.90
2022-12-11T04:26:44.088Z,64.19
2022-12-11T04:31:46.216Z,63.67
2022-12-11T04:36:48.242Z,64.24
2022-12-11T04:41:50.287Z,63.32
2022-12-11T04:46:52.379Z,64.68
2022-12-11T04:51:54.489Z,63.36
2022-12-11T04:56:56.494Z,64.87
2022-12-11T05:01:58.641Z,64.34
2022-12-11T05:07:01.371Z,64.74
2022-12-11T05:12:03.941Z,64.89
2022-12-11T05:17:05.938Z,63.98
2022-12-11T05:22:07.931Z,64.80
2022-12-11T05:27:10.762Z,64.99
2022-12-11T05:32:12.798Z,63.96
2022-12-11T05:37:14.849Z,64.39
2022-12-11T05:42:16.806Z,64.67
2022-12-11T05:47:20.621Z,64.08
2022-12-11T05:52:22.600Z,64.10
2022-12-11T05:57:24.566Z,64.68
2022-12-11T06:02:26.603Z,64.26
2022-12-11T06:07:28.622Z,64.62
2022-12-11T06:12:31.476Z,64.73
2022-12-11T06:17:34.551Z,66.09
2022-12-11T06:22:36.701Z,64.72
2022-12-11T06:27:38.714Z,64.67
2022-12-11T06:32:41.221Z,65.92
2022-12-11T06:37:43.174Z,65.90
2022-12-11T06:42:46.381Z,64.44
2022-12-11T06:47:48.386Z,68.32
2022-12-11T06:52:50.572Z,66.36
2022-12-11T06:57:52.921Z,64.91
2022-12-11T07:02:56.550Z,63.19
2022-12-11T07:07:58.769Z,62.56
2022-12-11T07:13:00.897Z,60.80
2022-12-11T07:18:03.051Z,59.47
2022-12-11T07:23:05.163Z,58.68
2022-12-11T07:28:09.129Z,56.06
2022-12-11T07:33:12.152Z,56.35
2022-12-11T07:38:14.344Z,55.17
2022-12-11T07:43:16.439Z,54.88
2022-12-11T07:48:18.647Z,54.52
2022-12-11T07:53:20.675Z,52.45
2022-12-11T07:58:22.773Z,52.20
2022-12-11T08:03:25.433Z,51.70
2022-12-11T08:08:27.517Z,51.10
2022-12-11T08:13:43.973Z,49.75
2022-12-11T08:18:50.710Z,50.21
2022-12-11T08:23:55.036Z,47.94
2022-12-11T08:28:59.731Z,46.54
2022-12-11T08:34:06.646Z,46.10
2022-12-11T08:39:10.764Z,46.68
2022-12-11T08:44:16.707Z,46.52
2022-12-11T08:49:32.715Z,45.59
2022-12-11T08:54:38.683Z,45.33
2022-12-11T08:59:43.944Z,44.29
2022-12-11T09:04:48.106Z,44.81
2022-12-11T09:09:55.514Z,44.76
2022-12-11T09:14:58.216Z,42.81
2022-12-11T09:20:00.352Z,43.44
2022-12-11T09:25:03.212Z,42.90
2022-12-11T09:30:06.146Z,42.38
2022-12-11T09:35:09.413Z,42.59
2022-12-11T09:40:12.893Z,42.26
2022-12-11T09:45:18.226Z,42.57
2022-12-11T09:50:31.559Z,41.99
2022-12-11T09:55:45.079Z,41.69
2022-12-11T10:01:01.372Z,40.80
2022-12-11T10:06:24.356Z,41.36
2022-12-11T10:11:26.328Z,41.47
2022-12-11T10:16:31.201Z,40.86
2022-12-11T10:21:42.403Z,40.52
2022-12-11T10:26:47.248Z,40.47
2022-12-11T10:32:03.103Z,41.04
2022-12-11T10:37:37.858Z,43.10
2022-12-11T10:42:45.526Z,44.53
2022-12-11T10:47:48.523Z,43.37
2022-12-11T10:52:55.164Z,41.47
2022-12-11T10:58:05.981Z,41.79
2022-12-11T11:03:33.795Z,41.42
2022-12-11T11:08:44.872Z,40.32
2022-12-11T11:13:49.062Z,41.26
2022-12-11T11:18:56.235Z,45.36
2022-12-11T11:23:58.968Z,46.85
2022-12-11T11:29:01.475Z,48.12
2022-12-11T11:34:12.021Z,48.39
2022-12-11T11:39:34.749Z,48.38
2022-12-11T11:45:00.811Z,49.49
2022-12-11T11:50:08.952Z,48.71
2022-12-11T11:55:42.785Z,48.82
2022-12-11T12:00:44.904Z,48.90
2022-12-11T12:05:59.377Z,47.70
2022-12-11T12:19:45.097Z,48.68
2022-12-11T12:24:53.738Z,49.21
2022-12-11T12:30:06.004Z,48.67
2022-12-11T12:35:38.673Z,48.55
2022-12-11T12:40:52.639Z,49.02
2022-12-11T12:46:10.992Z,49.59
2022-12-11T12:51:17.099Z,49.38
2022-12-11T12:56:21.179Z,48.31
2022-12-11T13:01:26.561Z,48.71
2022-12-11T13:06:38.450Z,49.68
2022-12-11T13:11:40.864Z,50.90
2022-12-11T13:16:52.245Z,50.20
2022-12-11T13:22:21.210Z,50.91
2022-12-11T13:27:25.465Z,50.74
2022-12-11T13:32:31.485Z,50.91
2022-12-11T13:37:36.873Z,50.57
2022-12-11T13:43:01.785Z,50.67
2022-12-11T13:48:16.638Z,50.89
2022-12-11T13:53:20.704Z,50.03
2022-12-11T13:58:24.083Z,50.41
2022-12-11T14:03:26.532Z,50.50
2022-12-11T14:08:35.517Z,50.27
2022-12-11T14:13:41.256Z,50.27
2022-12-11T14:18:43.429Z,50.47
2022-12-11T14:23:52.095Z,50.54
2022-12-11T14:28:54.467Z,50.50
2022-12-11T14:34:03.571Z,50.38
2022-12-11T14:39:36.255Z,50.21
2022-12-11T14:45:21.662Z,49.81
2022-12-11T14:50:39.117Z,49.79
2022-12-11T14:55:49.899Z,49.71
2022-12-11T15:01:26.747Z,49.18
2022-12-11T15:06:32.293Z,49.52
2022-12-11T15:11:34.659Z,49.30
2022-12-11T15:16:41.387Z,49.48
2022-12-11T15:21:43.916Z,49.77
2022-12-11T15:26:48.206Z,49.37
2022-12-11T15:32:28.297Z,49.77
2022-12-11T15:37:38.756Z,50.03
2022-12-11T15:42:42.978Z,49.67
2022-12-11T15:47:46.861Z,49.92
2022-12-11T15:52:50.276Z,49.30
2022-12-11T15:57:56.487Z,49.82
2022-12-11T16:02:59.343Z,49.60
2022-12-11T16:08:01.826Z,49.61
2022-12-11T16:13:04.112Z,49.30
2022-12-11T16:18:10.710Z,49.40
2022-12-11T16:23:15.523Z,49.84
2022-12-11T16:28:22.607Z,49.84
2022-12-11T16:33:25.388Z,50.06
2022-12-11T16:38:27.848Z,49.65
2022-12-11T16:43:30.912Z,49.47
2022-12-11T16:48:33.758Z,49.74
2022-12-11T16:53:36.956Z,49.11
2022-12-11T16:58:40.910Z,49.30
2022-12-11T17:03:45.314Z,49.46
2022-12-11T17:08:48.032Z,49.32
2022-12-11T17:13:59.047Z,49.46
2022-12-11T17:19:03.465Z,48.59
2022-12-11T17:24:07.020Z,48.88
2022-12-11T17:29:14.527Z,49.42
2022-12-11T17:34:17.140Z,48.86
2022-12-11T17:39:19.725Z,49.00
2022-12-11T17:44:22.782Z,48.97
2022-12-11T17:49:26.862Z,48.67
2022-12-11T17:54:41.980Z,48.78
2022-12-11T17:59:55.664Z,48.86
2022-12-11T18:05:02.323Z,49.00
2022-12-11T18:10:05.989Z,48.80
2022-12-11T18:15:09.770Z,48.94
2022-12-11T18:20:17.601Z,48.69
2022-12-11T18:25:20.826Z,48.99
2022-12-11T18:30:25.559Z,48.36
2022-12-11T18:35:35.480Z,48.92
2022-12-11T18:40:40.972Z,48.62
2022-12-11T18:45:49.176Z,48.95
2022-12-11T18:50:53.436Z,48.44
2022-12-11T18:56:00.321Z,48.39
2022-12-11T19:01:27.121Z,48.75
2022-12-11T19:06:41.033Z,48.85
2022-12-11T19:11:45.952Z,48.68
2022-12-11T19:16:52.621Z,48.79
2022-12-11T19:21:56.837Z,47.92
2022-12-11T19:27:00.928Z,48.22
2022-12-11T19:32:05.658Z,48.27
2022-12-11T19:37:11.444Z,48.33
2022-12-11T19:42:26.433Z,48.24
2022-12-11T19:47:32.445Z,47.67
2022-12-11T19:52:45.794Z,48.37
2022-12-11T19:57:54.226Z,47.95
2022-12-11T20:02:59.237Z,47.80
2022-12-11T20:08:27.676Z,48.04
2022-12-11T20:13:28.045Z,47.93
2022-12-11T20:18:31.410Z,48.45
2022-12-11T20:23:35.266Z,48.02
2022-12-11T20:34:05.830Z,47.95
2022-12-11T20:39:16.156Z,48.15
2022-12-11T20:44:25.680Z,48.08
2022-12-11T20:49:30.226Z,48.03
2022-12-11T20:54:33.851Z,47.62
2022-12-11T20:59:38.748Z,47.75
2022-12-11T21:04:42.666Z,47.95
2022-12-11T21:09:45.145Z,48.10
2022-12-11T21:14:48.527Z,48.37
2022-12-11T21:20:11.257Z,47.60
2022-12-11T21:25:14.150Z,47.87
2022-12-11T21:30:20.473Z,47.75
2022-12-11T21:35:24.974Z,47.87
2022-12-11T21:40:34.164Z,48.20
2022-12-11T21:46:00.957Z,48.32
2022-12-11T21:51:11.963Z,48.19
2022-12-11T21:56:24.525Z,47.19
2022-12-11T22:01:32.570Z,47.75
2022-12-11T22:06:35.210Z,48.46
2022-12-11T22:11:37.377Z,49.74
2022-12-11T22:16:41.400Z,49.89
2022-12-11T22:21:43.446Z,49.13
2022-12-11T22:26:45.632Z,48.86
2022-12-11T22:31:47.819Z,49.06
2022-12-11T22:36:49.981Z,48.65
2022-12-11T22:41:52.050Z,49.31
2022-12-11T22:46:54.022Z,49.49
2022-12-11T22:51:57.775Z,49.44
2022-12-11T22:56:59.764Z,49.45
2022-12-11T23:02:02.082Z,49.89
2022-12-11T23:07:04.522Z,50.76
2022-12-11T23:12:07.033Z,50.63
2022-12-11T23:17:10.403Z,50.73
2022-12-11T23:22:13.455Z,51.44
2022-12-11T23:27:15.654Z,51.36
2022-12-11T23:32:17.606Z,51.48
2022-12-11T23:37:20.254Z,51.98
2022-12-11T23:42:22.302Z,52.24
2022-12-11T23:47:24.415Z,52.65
2022-12-11T23:52:26.883Z,52.83
2022-12-11T23:57:28.828Z,53.09
